createdAt,value
2022-12-18T00:01:28.029Z,99.89
2022-12-18T00:03:56.925Z,100.00
2022-12-18T00:06:25.911Z,100.00
2022-12-18T00:08:53.333Z,100.00
2022-12-18T00:11:22.740Z,100.00
2022-12-18T00:13:50.176Z,100.00
2022-12-18T00:16:21.813Z,100.00
2022-12-18T00:18:50.908Z,100.00
2022-12-18T00:21:19.338Z,100.00
2022-12-18T00:23:47.862Z,100.00
2022-12-18T00:26:18.385Z,100.00
2022-12-18T00:28:46.630Z,100.00
2022-12-18T00:31:16.851Z,100.00
2022-12-18T00:33:44.479Z,100.00
2022-12-18T00:36:20.067Z,100.00
2022-12-18T00:38:48.435Z,100.00
2022-12-18T00:41:37.965Z,100.00
2022-12-18T00:44:06.722Z,100.00
2022-12-18T00:46:34.635Z,100.00
2022-12-18T00:49:01.703Z,100.00
2022-12-18T00:51:29.754Z,100.00
2022-12-18T00:53:57.094Z,100.00
2022-12-18T00:56:24.809Z,100.00
2022-12-18T00:58:53.152Z,100.00
2022-12-18T01:01:20.846Z,100.00
2022-12-18T01:03:48.058Z,100.00
2022-12-18T01:06:17.688Z,100.00
2022-12-18T01:08:44.967Z,100.00
2022-12-18T01:11:19.085Z,100.00
2022-12-18T01:13:46.897Z,100.00
2022-12-18T01:16:16.196Z,100.00
2022-12-18T01:18:43.422Z,100.00
2022-12-18T01:21:14.213Z,100.00
2022-12-18T01:23:42.087Z,100.00
2022-12-18T01:26:15.867Z,100.00
2022-12-18T01:28:44.773Z,100.00
2022-12-18T01:31:13.189Z,100.00
2022-12-18T01:33:41.126Z,100.00
2022-12-18T01:36:08.905Z,100.00
2022-12-18T01:38:35.990Z,100.00
2022-12-18T01:41:03.820Z,100.00
2022-12-18T01:43:51.072Z,100.00
2022-12-18T01:46:21.120Z,100.00
2022-12-18T01:48:51.738Z,100.00
2022-12-18T01:51:19.415Z,100.00
2022-12-18T01:53:49.486Z,100.00
2022-12-18T01:56:18.855Z,100.00
2022-12-18T01:59:05.673Z,100.00
2022-12-18T02:01:33.817Z,100.00
2022-12-18T02:04:24.561Z,100.00
2022-12-18T02:07:25.523Z,100.00
2022-12-18T02:10:15.809Z,100.00
2022-12-18T02:13:01.870Z,100.00
2022-12-18T02:15:43.628Z,100.00
2022-12-18T02:18:16.997Z,100.00
2022-12-18T02:20:55.798Z,100.00
2022-12-18T02:23:29.363Z,100.00
2022-12-18T02:26:31.908Z,100.00
2022-12-18T02:29:18.739Z,100.00
2022-12-18T02:31:54.727Z,100.00
2022-12-18T02:34:27.470Z,100.00
2022-12-18T02:36:57.628Z,100.00
2022-12-18T02:39:30.438Z,100.00
2022-12-18T02:41:59.511Z,100.00
2022-12-18T02:44:27.286Z,100.00
2022-12-18T02:46:55.405Z,100.00
2022-12-18T02:49:37.920Z,100.00
2022-12-18T02:52:14.479Z,100.00
2022-12-18T02:54:58.790Z,100.00
2022-12-18T02:57:35.494Z,100.00
2022-12-18T03:00:09.937Z,100.00
2022-12-18T03:02:55.360Z,100.00
2022-12-18T03:05:32.503Z,100.00
2022-12-18T03:08:14.939Z,100.00
2022-12-18T03:11:02.189Z,100.00
2022-12-18T03:13:38.475Z,100.00
2022-12-18T03:16:10.330Z,100.00
2022-12-18T03:18:52.661Z,100.00
2022-12-18T03:21:24.073Z,100.00
2022-12-18T03:23:53.942Z,100.00
2022-12-18T03:26:25.693Z,100.00
2022-12-18T03:28:58.586Z,100.00
2022-12-18T03:31:32.079Z,100.00
2022-12-18T03:34:13.494Z,100.00
2022-12-18T03:36:41.466Z,100.00
2022-12-18T03:39:09.066Z,100.00
2022-12-18T03:41:49.906Z,100.00
2022-12-18T03:44:58.836Z,100.00
2022-12-18T03:48:01.593Z,100.00
2022-12-18T03:50:43.010Z,100.00
2022-12-18T03:53:47.251Z,100.00
2022-12-18T03:56:17.304Z,100.00
2022-12-18T03:58:46.718Z,100.00
2022-12-18T04:01:18.591Z,100.00
2022-12-18T04:03:49.198Z,100.00
2022-12-18T04:06:19.060Z,100.00
2022-12-18T04:08:48.228Z,100.00
2022-12-18T04:11:16.539Z,100.00
2022-12-18T04:13:44.566Z,100.00
2022-12-18T04:16:13.598Z,100.00
2022-12-18T04:18:40.918Z,100.00
2022-12-18T04:21:09.203Z,100.00
2022-12-18T04:23:37.445Z,100.00
2022-12-18T04:26:05.282Z,100.00
2022-12-18T04:28:37.003Z,100.00
2022-12-18T04:31:04.544Z,100.00
2022-12-18T04:33:31.600Z,100.00
2022-12-18T04:35:59.085Z,100.00
2022-12-18T04:38:26.756Z,100.00
2022-12-18T04:40:56.994Z,100.00
2022-12-18T04:43:24.997Z,100.00
2022-12-18T04:45:52.334Z,100.00
2022-12-18T04:48:19.398Z,100.00
2022-12-18T04:50:47.838Z,100.00
2022-12-18T04:53:15.142Z,100.00
2022-12-18T04:55:42.146Z,100.00
2022-12-18T04:58:09.158Z,100.00
2022-12-18T05:00:37.068Z,100.00
2022-12-18T05:03:04.274Z,100.00
2022-12-18T05:05:31.384Z,100.00
2022-12-18T05:07:58.763Z,99.15
2022-12-18T05:10:25.740Z,99.92
2022-12-18T05:12:59.379Z,100.00
2022-12-18T05:15:32.962Z,100.00
2022-12-18T05:18:00.568Z,100.00
2022-12-18T05:20:29.555Z,100.00
2022-12-18T05:22:57.100Z,100.00
2022-12-18T05:25:24.437Z,100.00
2022-12-18T05:27:51.747Z,100.00
2022-12-18T05:30:18.858Z,100.00
2022-12-18T05:32:45.832Z,100.00
2022-12-18T05:35:13.122Z,100.00
2022-12-18T05:37:43.167Z,100.00
2022-12-18T05:40:11.516Z,100.00
2022-12-18T05:42:38.779Z,100.00
2022-12-18T05:45:06.734Z,100.00
2022-12-18T05:47:33.811Z,100.00
2022-12-18T05:50:01.075Z,100.00
2022-12-18T05:52:28.188Z,100.00
2022-12-18T05:54:55.342Z,100.00
2022-12-18T05:57:22.627Z,100.00
2022-12-18T05:59:49.719Z,100.00
2022-12-18T06:02:16.889Z,100.00
2022-12-18T06:04:44.300Z,100.00
2022-12-18T06:07:11.381Z,100.00
2022-12-18T06:09:38.533Z,100.00
2022-12-18T06:12:06.303Z,100.00
2022-12-18T06:14:33.355Z,100.00
2022-12-18T06:17:00.410Z,100.00
2022-12-18T06:19:27.756Z,100.00
2022-12-18T06:21:54.775Z,100.00
2022-12-18T06:24:21.803Z,100.00
2022-12-18T06:26:49.097Z,100.00
2022-12-18T06:29:16.115Z,100.00
2022-12-18T06:31:43.141Z,100.00
2022-12-18T06:34:10.523Z,100.00
2022-12-18T06:36:37.541Z,100.00
2022-12-18T06:39:05.165Z,100.00
2022-12-18T06:41:33.249Z,100.00
2022-12-18T06:44:00.394Z,100.00
2022-12-18T06:46:27.946Z,100.00
2022-12-18T06:48:55.241Z,100.00
2022-12-18T06:51:24.676Z,100.00
2022-12-18T06:53:51.719Z,100.00
2022-12-18T06:56:19.057Z,100.00
2022-12-18T06:58:46.131Z,100.00
2022-12-18T07:01:14.301Z,100.00
2022-12-18T07:03:43.168Z,100.00
2022-12-18T07:06:18.999Z,100.00
2022-12-18T07:08:47.738Z,100.00
2022-12-18T07:11:15.802Z,99.34
2022-12-18T07:13:43.927Z,98.25
2022-12-18T07:16:20.898Z,98.35
2022-12-18T07:18:49.478Z,98.84
2022-12-18T07:21:19.477Z,98.69
2022-12-18T07:23:49.097Z,98.19
2022-12-18T07:26:19.512Z,98.82
2022-12-18T07:28:47.277Z,98.68
2022-12-18T07:31:20.294Z,98.22
2022-12-18T07:33:49.572Z,97.35
2022-12-18T07:36:16.709Z,97.06
2022-12-18T07:38:44.148Z,97.54
2022-12-18T07:41:13.680Z,96.24
2022-12-18T07:43:42.222Z,95.77
2022-12-18T07:46:10.346Z,95.96
2022-12-18T07:48:38.023Z,95.43
2022-12-18T07:51:07.242Z,95.56
2022-12-18T07:53:36.419Z,94.28
2022-12-18T07:56:26.514Z,94.10
2022-12-18T07:58:54.485Z,94.48
2022-12-18T08:01:22.540Z,94.38
2022-12-18T08:03:51.591Z,94.34
2022-12-18T08:06:23.380Z,95.12
2022-12-18T08:08:53.544Z,94.43
2022-12-18T08:11:20.750Z,93.34
2022-12-18T08:13:48.594Z,92.41
2022-12-18T08:16:17.866Z,92.54
2022-12-18T08:18:45.127Z,91.61
2022-12-18T08:21:14.016Z,90.51
2022-12-18T08:23:43.278Z,89.99
2022-12-18T08:26:11.577Z,90.07
2022-12-18T08:28:39.034Z,89.77
2022-12-18T08:31:07.022Z,88.59
2022-12-18T08:33:34.786Z,87.30
2022-12-18T08:36:02.830Z,87.46
2022-12-18T08:38:30.110Z,87.55
2022-12-18T08:41:01.672Z,86.71
2022-12-18T08:43:47.568Z,84.65
2022-12-18T08:46:19.826Z,85.60
2022-12-18T08:48:47.294Z,85.38
2022-12-18T08:51:17.365Z,84.56
2022-12-18T08:53:45.552Z,84.45
2022-12-18T08:56:13.565Z,83.51
2022-12-18T08:58:41.950Z,82.99
2022-12-18T09:01:11.046Z,82.16
2022-12-18T09:03:38.997Z,82.81
2022-12-18T09:06:07.625Z,82.09
2022-12-18T09:08:40.648Z,81.93
2022-12-18T09:11:15.168Z,82.74
2022-12-18T09:13:42.827Z,82.54
2022-12-18T09:16:10.722Z,82.98
2022-12-18T09:18:38.015Z,81.32
2022-12-18T09:21:13.606Z,80.89
2022-12-18T09:23:41.027Z,79.97
2022-12-18T09:26:08.627Z,78.60
2022-12-18T09:28:35.707Z,78.42
2022-12-18T09:31:08.786Z,78.65
2022-12-18T09:33:37.449Z,78.67
2022-12-18T09:36:07.686Z,75.37
2022-12-18T09:38:35.911Z,75.46
2022-12-18T09:41:18.949Z,75.87
2022-12-18T09:43:51.172Z,73.84
2022-12-18T09:46:27.813Z,73.01
2022-12-18T09:49:00.636Z,73.44
2022-12-18T09:51:32.504Z,69.95
2022-12-18T09:54:05.024Z,69.50
2022-12-18T09:56:39.865Z,67.45
2022-12-18T09:59:15.335Z,67.19
2022-12-18T10:01:44.565Z,69.11
2022-12-18T10:04:13.970Z,69.05
2022-12-18T10:06:48.286Z,70.32
2022-12-18T10:09:27.121Z,69.49
2022-12-18T10:12:34.456Z,68.87
2022-12-18T10:15:13.973Z,66.87
2022-12-18T10:17:52.710Z,66.73
2022-12-18T10:20:37.749Z,67.40
2022-12-18T10:23:31.195Z,67.79
2022-12-18T10:26:07.783Z,66.71
2022-12-18T10:28:38.931Z,68.53
2022-12-18T10:31:17.867Z,69.58
2022-12-18T10:33:45.223Z,70.69
2022-12-18T10:36:12.606Z,68.90
2022-12-18T10:38:40.591Z,69.66
2022-12-18T10:41:26.949Z,70.72
2022-12-18T10:44:21.428Z,71.80
2022-12-18T10:46:51.503Z,70.54
2022-12-18T10:49:22.270Z,70.02
2022-12-18T10:51:49.566Z,70.58
2022-12-18T10:54:16.712Z,69.97
2022-12-18T10:56:44.885Z,69.78
2022-12-18T10:59:15.981Z,69.66
2022-12-18T11:01:59.429Z,68.09
2022-12-18T11:04:36.256Z,67.01
2022-12-18T11:07:09.049Z,65.94
2022-12-18T11:09:39.137Z,67.27
2022-12-18T11:12:21.048Z,66.23
2022-12-18T11:14:58.632Z,66.69
2022-12-18T11:17:36.533Z,65.12
2022-12-18T11:20:11.042Z,64.69
2022-12-18T11:22:39.331Z,64.96
2022-12-18T11:28:05.924Z,66.43
2022-12-18T11:30:35.550Z,66.11
2022-12-18T11:33:15.762Z,64.86
2022-12-18T11:35:53.019Z,65.27
2022-12-18T11:38:36.760Z,64.52
2022-12-18T11:41:50.654Z,65.19
2022-12-18T11:44:29.543Z,65.41
2022-12-18T11:47:02.768Z,64.22
2022-12-18T11:49:38.032Z,64.18
2022-12-18T11:52:25.273Z,65.10
2022-12-18T11:54:54.732Z,64.90
2022-12-18T11:58:00.629Z,64.52
2022-12-18T12:00:28.170Z,64.22
2022-12-18T12:03:19.762Z,65.22
2022-12-18T12:06:30.814Z,63.82
2022-12-18T12:09:25.567Z,63.10
2022-12-18T12:11:55.327Z,63.89
2022-12-18T12:14:28.362Z,64.92
2022-12-18T12:17:20.212Z,63.72
2022-12-18T12:19:56.376Z,65.48
2022-12-18T12:22:48.539Z,65.19
2022-12-18T12:25:53.566Z,64.42
2022-12-18T12:28:53.610Z,63.72
2022-12-18T12:31:57.338Z,64.46
2022-12-18T12:34:40.462Z,62.77
2022-12-18T12:37:10.808Z,62.98
2022-12-18T12:39:41.727Z,62.44
2022-12-18T12:42:59.244Z,62.31
2022-12-18T12:45:54.088Z,62.60
2022-12-18T12:48:44.565Z,63.45
2022-12-18T12:51:24.899Z,63.47
2022-12-18T12:53:54.412Z,63.95
2022-12-18T12:56:22.445Z,63.38
2022-12-18T12:59:20.387Z,62.74
2022-12-18T13:02:06.219Z,63.25
2022-12-18T13:04:39.873Z,63.90
2022-12-18T13:07:37.538Z,62.60
2022-12-18T13:10:19.182Z,62.61
2022-12-18T13:12:59.875Z,62.09
2022-12-18T13:15:46.302Z,61.83
2022-12-18T13:18:17.891Z,62.17
2022-12-18T13:23:39.918Z,62.29
2022-12-18T13:26:09.017Z,63.11
2022-12-18T13:28:48.529Z,63.34
2022-12-18T13:31:36.635Z,64.33
2022-12-18T13:34:28.322Z,62.95
2022-12-18T13:37:18.010Z,62.79
2022-12-18T13:39:45.547Z,65.11
2022-12-18T13:42:32.920Z,65.79
2022-12-18T13:45:00.703Z,66.56
2022-12-18T13:47:38.422Z,67.50
2022-12-18T13:50:33.943Z,67.92
2022-12-18T13:53:06.022Z,68.34
2022-12-18T13:55:33.465Z,69.16
2022-12-18T13:58:08.059Z,69.31
2022-12-18T14:00:35.650Z,69.75
2022-12-18T14:03:03.151Z,69.80
2022-12-18T14:05:37.275Z,70.72
2022-12-18T14:08:09.943Z,69.85
2022-12-18T14:10:49.441Z,69.53
2022-12-18T14:13:33.260Z,70.42
2022-12-18T14:16:02.655Z,70.89
2022-12-18T14:18:39.878Z,70.47
2022-12-18T14:21:17.832Z,70.87
2022-12-18T14:23:46.021Z,71.24
2022-12-18T14:26:30.109Z,72.00
2022-12-18T14:29:19.781Z,72.77
2022-12-18T14:32:09.368Z,73.58
2022-12-18T14:34:39.570Z,72.39
2022-12-18T14:37:10.486Z,72.91
2022-12-18T14:39:37.591Z,73.52
2022-12-18T14:42:05.099Z,74.49
2022-12-18T14:44:44.294Z,75.30
2022-12-18T14:47:19.013Z,75.67
2022-12-18T14:49:46.144Z,75.95
2022-12-18T14:52:28.538Z,76.84
2022-12-18T14:54:55.899Z,77.29
2022-12-18T14:57:37.270Z,77.86
2022-12-18T15:00:07.204Z,78.65
2022-12-18T15:02:37.421Z,79.62
2022-12-18T15:05:17.764Z,80.11
2022-12-18T15:07:53.128Z,80.69
2022-12-18T15:10:23.461Z,81.66
2022-12-18T15:13:08.055Z,82.33
2022-12-18T15:15:36.955Z,82.92
2022-12-18T15:18:08.823Z,83.28
2022-12-18T15:20:51.447Z,83.99
2022-12-18T15:23:19.850Z,84.52
2022-12-18T15:25:49.122Z,85.07
2022-12-18T15:28:44.197Z,85.16
2022-12-18T15:31:14.096Z,86.02
2022-12-18T15:33:54.365Z,87.07
2022-12-18T15:36:26.691Z,87.88
2022-12-18T15:39:05.032Z,88.27
2022-12-18T15:41:36.064Z,88.54
2022-12-18T15:44:21.034Z,89.06
2022-12-18T15:46:48.328Z,89.25
2022-12-18T15:49:15.346Z,89.58
2022-12-18T15:51:42.539Z,90.39
2022-12-18T15:54:15.024Z,90.56
2022-12-18T15:57:00.513Z,90.94
2022-12-18T15:59:28.149Z,90.96
2022-12-18T16:01:55.347Z,90.89
2022-12-18T16:04:24.505Z,91.10
2022-12-18T16:07:14.746Z,91.01
2022-12-18T16:09:40.299Z,91.38
2022-12-18T16:12:15.102Z,91.95
2022-12-18T16:14:42.471Z,92.45
2022-12-18T16:17:15.165Z,92.83
2022-12-18T16:19:45.718Z,93.04
2022-12-18T16:22:22.299Z,93.23
2022-12-18T16:24:50.155Z,93.35
2022-12-18T16:27:17.533Z,93.64
2022-12-18T16:29:44.723Z,93.28
2022-12-18T16:32:17.913Z,93.55
2022-12-18T16:34:45.627Z,93.90
2022-12-18T16:37:14.478Z,94.16
2022-12-18T16:39:42.204Z,94.42
2022-12-18T16:42:20.825Z,94.54
2022-12-18T16:44:50.103Z,94.82
2022-12-18T16:47:17.979Z,95.12
2022-12-18T16:49:46.002Z,95.46
2022-12-18T16:52:14.442Z,95.47
2022-12-18T16:54:41.805Z,95.71
2022-12-18T16:57:13.039Z,96.04
2022-12-18T16:59:40.352Z,95.85
2022-12-18T17:02:14.977Z,95.75
2022-12-18T17:04:43.104Z,95.79
2022-12-18T17:07:10.979Z,96.06
2022-12-18T17:09:38.716Z,96.40
2022-12-18T17:12:06.576Z,96.51
2022-12-18T17:14:34.489Z,96.66
2022-12-18T17:17:24.330Z,96.74
2022-12-18T17:19:48.896Z,96.65
2022-12-18T17:22:16.042Z,96.95
2022-12-18T17:24:43.044Z,97.18
2022-12-18T17:27:10.305Z,96.75
2022-12-18T17:29:40.160Z,96.88
2022-12-18T17:32:12.598Z,97.27
2022-12-18T17:34:41.082Z,97.58
2022-12-18T17:37:08.493Z,97.86
2022-12-18T17:39:35.905Z,98.03
2022-12-18T17:42:03.081Z,97.97
2022-12-18T17:44:30.114Z,98.20
2022-12-18T17:46:57.449Z,98.38
2022-12-18T17:49:24.486Z,98.80
2022-12-18T17:51:51.635Z,98.90
2022-12-18T17:54:18.960Z,98.79
2022-12-18T17:56:46.262Z,98.80
2022-12-18T17:59:13.397Z,98.92
2022-12-18T18:01:44.600Z,99.38
2022-12-18T18:04:13.697Z,99.67
2022-12-18T18:06:41.196Z,99.68
2022-12-18T18:09:16.697Z,99.55
2022-12-18T18:12:04.115Z,99.35
2022-12-18T18:14:31.818Z,99.64
2022-12-18T18:17:04.442Z,99.86
2022-12-18T18:19:33.163Z,100.00
2022-12-18T18:22:01.589Z,100.00
2022-12-18T18:24:30.397Z,100.00
2022-12-18T18:26:59.608Z,100.00
2022-12-18T18:29:30.516Z,100.00
2022-12-18T18:31:58.133Z,100.00
2022-12-18T18:34:28.332Z,100.00
2022-12-18T18:36:58.426Z,100.00
2022-12-18T18:39:25.869Z,100.00
2022-12-18T18:41:56.315Z,100.00
2022-12-18T18:44:25.584Z,100.00
2022-12-18T18:46:57.014Z,100.00
2022-12-18T18:49:27.690Z,100.00
2022-12-18T18:51:56.722Z,100.00
2022-12-18T18:54:24.917Z,100.00
2022-12-18T18:59:40.430Z,100.00
2022-12-18T19:02:15.271Z,100.00
2022-12-18T19:04:45.717Z,100.00
2022-12-18T19:07:20.321Z,100.00
2022-12-18T19:10:02.090Z,100.00
2022-12-18T19:12:52.472Z,100.00
2022-12-18T19:15:19.597Z,100.00
2022-12-18T19:17:47.877Z,100.00
2022-12-18T19:20:15.705Z,100.00
2022-12-18T19:22:42.683Z,100.00
2022-12-18T19:25:10.687Z,100.00
2022-12-18T19:27:40.064Z,100.00
2022-12-18T19:30:07.857Z,100.00
2022-12-18T19:32:36.019Z,100.00
2022-12-18T19:35:03.271Z,100.00
2022-12-18T19:37:31.256Z,100.00
2022-12-18T19:39:58.689Z,100.00
2022-12-18T19:42:34.832Z,100.00
2022-12-18T19:45:06.304Z,100.00
2022-12-18T19:47:33.407Z,100.00
2022-12-18T19:50:01.008Z,100.00
2022-12-18T19:52:28.485Z,100.00
2022-12-18T19:54:58.136Z,100.00
2022-12-18T19:57:25.176Z,100.00
2022-12-18T19:59:52.570Z,100.00
2022-12-18T20:02:21.125Z,100.00
2022-12-18T20:04:49.722Z,100.00
2022-12-18T20:07:16.679Z,100.00
2022-12-18T20:09:44.433Z,100.00
2022-12-18T20:12:11.886Z,100.00
2022-12-18T20:14:39.074Z,100.00
2022-12-18T20:17:06.503Z,100.00
2022-12-18T20:19:34.443Z,100.00
2022-12-18T20:22:02.005Z,100.00
2022-12-18T20:24:29.114Z,100.00
2022-12-18T20:26:56.653Z,100.00
2022-12-18T20:29:23.658Z,100.00
2022-12-18T20:31:50.787Z,100.00
2022-12-18T20:34:18.854Z,100.00
2022-12-18T20:36:46.439Z,100.00
2022-12-18T20:39:14.392Z,100.00
2022-12-18T20:41:44.172Z,100.00
2022-12-18T20:44:23.056Z,100.00
2022-12-18T20:46:57.001Z,100.00
2022-12-18T20:49:26.382Z,100.00
2022-12-18T20:51:56.149Z,100.00
2022-12-18T20:54:25.054Z,100.00
2022-12-18T20:56:52.496Z,100.00
2022-12-18T20:59:20.454Z,100.00
2022-12-18T21:01:48.738Z,100.00
2022-12-18T21:04:18.519Z,100.00
2022-12-18T21:06:53.300Z,100.00
2022-12-18T21:09:23.831Z,100.00
2022-12-18T21:12:11.147Z,100.00
2022-12-18T21:14:42.187Z,100.00
2022-12-18T21:17:10.149Z,100.00
2022-12-18T21:19:37.479Z,100.00
2022-12-18T21:22:04.743Z,100.00
2022-12-18T21:24:33.017Z,100.00
2022-12-18T21:27:00.383Z,100.00
2022-12-18T21:29:27.756Z,100.00
2022-12-18T21:31:55.426Z,100.00
2022-12-18T21:34:28.099Z,100.00
2022-12-18T21:36:57.681Z,100.00
2022-12-18T21:39:27.482Z,100.00
2022-12-18T21:42:14.330Z,100.00
2022-12-18T21:44:42.586Z,100.00
2022-12-18T21:47:17.692Z,100.00
2022-12-18T21:49:53.651Z,100.00
2022-12-18T21:52:31.533Z,100.00
2022-12-18T21:55:08.862Z,100.00
2022-12-18T21:57:38.684Z,100.00
2022-12-18T22:00:07.744Z,100.00
2022-12-18T22:02:39.516Z,100.00
2022-12-18T22:05:07.630Z,100.00
2022-12-18T22:07:34.782Z,100.00
2022-12-18T22:10:02.291Z,100.00
2022-12-18T22:12:35.944Z,100.00
2022-12-18T22:15:13.120Z,100.00
2022-12-18T22:17:51.216Z,100.00
2022-12-18T22:20:24.000Z,100.00
2022-12-18T22:22:52.514Z,100.00
2022-12-18T22:25:19.537Z,100.00
2022-12-18T22:28:06.514Z,100.00
2022-12-18T22:30:34.156Z,100.00
2022-12-18T22:33:01.748Z,100.00
2022-12-18T22:35:28.749Z,100.00
2022-12-18T22:37:59.047Z,100.00
2022-12-18T22:40:26.881Z,100.00
2022-12-18T22:42:54.728Z,100.00
2022-12-18T22:45:26.917Z,100.00
2022-12-18T22:47:54.318Z,100.00
2022-12-18T22:50:21.675Z,100.00
2022-12-18T22:52:48.680Z,100.00
2022-12-18T22:55:15.842Z,100.00
2022-12-18T22:57:48.504Z,100.00
2022-12-18T23:00:24.601Z,100.00
2022-12-18T23:02:59.361Z,100.00
2022-12-18T23:05:29.542Z,100.00
2022-12-18T23:07:57.087Z,100.00
2022-12-18T23:10:24.532Z,100.00
2022-12-18T23:12:51.630Z,100.00
2022-12-18T23:15:19.112Z,100.00
2022-12-18T23:17:52.076Z,100.00
2022-12-18T23:20:19.466Z,100.00
2022-12-18T23:22:46.452Z,100.00
2022-12-18T23:25:13.523Z,100.00
2022-12-18T23:27:40.805Z,100.00
2022-12-18T23:30:08.343Z,100.00
2022-12-18T23:32:37.545Z,100.00
2022-12-18T23:35:05.400Z,100.00
2022-12-18T23:37:57.373Z,100.00
2022-12-18T23:40:21.639Z,100.00
2022-12-18T23:42:48.701Z,100.00
2022-12-18T23:45:17.644Z,100.00
2022-12-18T23:47:46.283Z,100.00
2022-12-18T23:50:17.568Z,100.00
2022-12-18T23:52:44.636Z,100.00
2022-12-18T23:55:12.006Z,100.00
2022-12-18T23:57:39.093Z,100.00
